sensor_id;sensor_type;location;lat;lon;timestamp;P1;durP1;ratioP1;P2;durP2;ratioP2
18669;SDS011;9464;44.918;9.670;2023-02-13T00:01:27;32.83;;;19.90;;
18669;SDS011;9464;44.918;9.670;2023-02-13T00:03:55;37.37;;;18.53;;
18669;SDS011;9464;44.918;9.670;2023-02-13T00:06:24;33.50;;;19.43;;
18669;SDS011;9464;44.918;9.670;2023-02-13T00:08:53;36.50;;;20.00;;
18669;SDS011;9464;44.918;9.670;2023-02-13T00:11:21;38.13;;;21.37;;
18669;SDS011;9464;44.918;9.670;2023-02-13T00:13:50;38.30;;;22.57;;
18669;SDS011;9464;44.918;9.670;2023-02-13T00:16:18;40.80;;;21.40;;
18669;SDS011;9464;44.918;9.670;2023-02-13T00:18:48;37.67;;;22.23;;
18669;SDS011;9464;44.918;9.670;2023-02-13T00:21:17;36.43;;;20.73;;
18669;SDS011;9464;44.918;9.670;2023-02-13T00:23:45;37.83;;;21.50;;
18669;SDS011;9464;44.918;9.670;2023-02-13T00:26:14;38.17;;;21.77;;
18669;SDS011;9464;44.918;9.670;2023-02-13T00:28:43;44.63;;;21.57;;
18669;SDS011;9464;44.918;9.670;2023-02-13T00:31:13;42.80;;;23.00;;
18669;SDS011;9464;44.918;9.670;2023-02-13T00:33:42;45.47;;;23.73;;
18669;SDS011;9464;44.918;9.670;2023-02-13T00:36:12;53.43;;;27.13;;
18669;SDS011;9464;44.918;9.670;2023-02-13T00:38:41;43.57;;;24.50;;
18669;SDS011;9464;44.918;9.670;2023-02-13T00:41:10;56.50;;;27.17;;
18669;SDS011;9464;44.918;9.670;2023-02-13T00:43:39;48.03;;;26.30;;
18669;SDS011;9464;44.918;9.670;2023-02-13T00:46:08;47.57;;;26.23;;
18669;SDS011;9464;44.918;9.670;2023-02-13T00:48:37;47.70;;;26.20;;
18669;SDS011;9464;44.918;9.670;2023-02-13T00:51:06;51.10;;;25.53;;
18669;SDS011;9464;44.918;9.670;2023-02-13T00:53:36;46.10;;;22.77;;
18669;SDS011;9464;44.918;9.670;2023-02-13T00:56:05;44.33;;;22.23;;
18669;SDS011;9464;44.918;9.670;2023-02-13T00:58:34;37.97;;;21.43;;
18669;SDS011;9464;44.918;9.670;2023-02-13T01:01:02;43.20;;;23.57;;
18669;SDS011;9464;44.918;9.670;2023-02-13T01:03:31;42.47;;;24.30;;
18669;SDS011;9464;44.918;9.670;2023-02-13T01:05:59;43.23;;;24.13;;
18669;SDS011;9464;44.918;9.670;2023-02-13T01:08:28;39.97;;;23.10;;
18669;SDS011;9464;44.918;9.670;2023-02-13T01:10:58;41.73;;;23.90;;
18669;SDS011;9464;44.918;9.670;2023-02-13T01:13:26;44.63;;;23.13;;
18669;SDS011;9464;44.918;9.670;2023-02-13T01:15:55;42.50;;;24.10;;
18669;SDS011;9464;44.918;9.670;2023-02-13T01:18:23;39.13;;;21.87;;
18669;SDS011;9464;44.918;9.670;2023-02-13T01:20:55;36.33;;;20.97;;
18669;SDS011;9464;44.918;9.670;2023-02-13T01:23:25;32.43;;;19.30;;
18669;SDS011;9464;44.918;9.670;2023-02-13T01:25:57;37.20;;;20.60;;
18669;SDS011;9464;44.918;9.670;2023-02-13T01:28:26;38.83;;;21.80;;
18669;SDS011;9464;44.918;9.670;2023-02-13T01:30:55;35.47;;;21.17;;
18669;SDS011;9464;44.918;9.670;2023-02-13T01:33:25;42.33;;;21.80;;
18669;SDS011;9464;44.918;9.670;2023-02-13T01:35:54;34.97;;;19.93;;
18669;SDS011;9464;44.918;9.670;2023-02-13T01:38:23;37.77;;;20.03;;
18669;SDS011;9464;44.918;9.670;2023-02-13T01:40:52;35.07;;;19.93;;
18669;SDS011;9464;44.918;9.670;2023-02-13T01:43:23;35.40;;;19.73;;
18669;SDS011;9464;44.918;9.670;2023-02-13T01:45:52;34.27;;;18.53;;
18669;SDS011;9464;44.918;9.670;2023-02-13T01:48:23;28.77;;;16.90;;
18669;SDS011;9464;44.918;9.670;2023-02-13T01:50:53;31.13;;;17.80;;
18669;SDS011;9464;44.918;9.670;2023-02-13T01:53:24;32.17;;;18.50;;
18669;SDS011;9464;44.918;9.670;2023-02-13T01:55:55;31.77;;;18.10;;
18669;SDS011;9464;44.918;9.670;2023-02-13T01:58:26;30.00;;;17.83;;
18669;SDS011;9464;44.918;9.670;2023-02-13T02:00:57;29.20;;;17.63;;
18669;SDS011;9464;44.918;9.670;2023-02-13T02:03:26;30.20;;;17.57;;
18669;SDS011;9464;44.918;9.670;2023-02-13T02:05:56;34.67;;;18.30;;
18669;SDS011;9464;44.918;9.670;2023-02-13T02:08:26;32.20;;;18.37;;
18669;SDS011;9464;44.918;9.670;2023-02-13T02:10:55;34.70;;;17.87;;
18669;SDS011;9464;44.918;9.670;2023-02-13T02:13:26;34.43;;;18.20;;
18669;SDS011;9464;44.918;9.670;2023-02-13T02:15:55;36.00;;;17.93;;
18669;SDS011;9464;44.918;9.670;2023-02-13T02:18:23;27.67;;;15.63;;
18669;SDS011;9464;44.918;9.670;2023-02-13T02:26:33;28.17;;;15.00;;
18669;SDS011;9464;44.918;9.670;2023-02-13T02:29:19;29.47;;;15.13;;
18669;SDS011;9464;44.918;9.670;2023-02-13T02:31:58;24.33;;;14.77;;
18669;SDS011;9464;44.918;9.670;2023-02-13T02:34:32;26.30;;;14.27;;
18669;SDS011;9464;44.918;9.670;2023-02-13T02:37:04;25.77;;;14.43;;
18669;SDS011;9464;44.918;9.670;2023-02-13T02:39:36;26.90;;;13.93;;
18669;SDS011;9464;44.918;9.670;2023-02-13T02:42:12;26.40;;;14.03;;
18669;SDS011;9464;44.918;9.670;2023-02-13T02:44:48;27.43;;;14.77;;
18669;SDS011;9464;44.918;9.670;2023-02-13T02:47:22;27.43;;;15.87;;
18669;SDS011;9464;44.918;9.670;2023-02-13T02:50:23;26.47;;;13.00;;
18669;SDS011;9464;44.918;9.670;2023-02-13T02:52:56;25.77;;;13.77;;
18669;SDS011;9464;44.918;9.670;2023-02-13T02:55:31;23.73;;;13.53;;
18669;SDS011;9464;44.918;9.670;2023-02-13T02:58:04;25.97;;;13.20;;
18669;SDS011;9464;44.918;9.670;2023-02-13T03:00:52;23.83;;;12.80;;
18669;SDS011;9464;44.918;9.670;2023-02-13T03:03:41;28.50;;;14.00;;
18669;SDS011;9464;44.918;9.670;2023-02-13T03:06:29;24.83;;;13.97;;
18669;SDS011;9464;44.918;9.670;2023-02-13T03:09:01;26.23;;;14.33;;
18669;SDS011;9464;44.918;9.670;2023-02-13T03:11:49;27.07;;;14.00;;
18669;SDS011;9464;44.918;9.670;2023-02-13T03:14:35;23.97;;;12.90;;
18669;SDS011;9464;44.918;9.670;2023-02-13T03:17:04;28.97;;;13.53;;
18669;SDS011;9464;44.918;9.670;2023-02-13T03:19:54;23.13;;;12.97;;
18669;SDS011;9464;44.918;9.670;2023-02-13T03:22:44;23.90;;;13.23;;
18669;SDS011;9464;44.918;9.670;2023-02-13T03:25:17;23.50;;;12.77;;
18669;SDS011;9464;44.918;9.670;2023-02-13T03:27:56;23.80;;;13.37;;
18669;SDS011;9464;44.918;9.670;2023-02-13T03:30:46;24.27;;;12.50;;
18669;SDS011;9464;44.918;9.670;2023-02-13T03:33:24;25.00;;;12.60;;
18669;SDS011;9464;44.918;9.670;2023-02-13T03:35:57;20.83;;;12.43;;
18669;SDS011;9464;44.918;9.670;2023-02-13T03:38:46;26.10;;;13.07;;
18669;SDS011;9464;44.918;9.670;2023-02-13T03:41:18;27.93;;;13.43;;
18669;SDS011;9464;44.918;9.670;2023-02-13T03:43:51;22.67;;;12.80;;
18669;SDS011;9464;44.918;9.670;2023-02-13T03:46:22;25.57;;;13.40;;
18669;SDS011;9464;44.918;9.670;2023-02-13T03:48:52;26.20;;;14.73;;
18669;SDS011;9464;44.918;9.670;2023-02-13T03:51:41;27.80;;;14.43;;
18669;SDS011;9464;44.918;9.670;2023-02-13T03:54:12;24.63;;;14.00;;
18669;SDS011;9464;44.918;9.670;2023-02-13T03:56:43;24.07;;;14.23;;
18669;SDS011;9464;44.918;9.670;2023-02-13T03:59:31;28.53;;;14.30;;
18669;SDS011;9464;44.918;9.670;2023-02-13T04:02:02;25.37;;;14.53;;
18669;SDS011;9464;44.918;9.670;2023-02-13T04:04:34;23.77;;;14.40;;
18669;SDS011;9464;44.918;9.670;2023-02-13T04:07:07;27.27;;;14.97;;
18669;SDS011;9464;44.918;9.670;2023-02-13T04:09:40;25.73;;;15.30;;
18669;SDS011;9464;44.918;9.670;2023-02-13T04:12:12;28.67;;;15.37;;
18669;SDS011;9464;44.918;9.670;2023-02-13T04:14:42;28.87;;;17.20;;
18669;SDS011;9464;44.918;9.670;2023-02-13T04:17:15;36.00;;;18.30;;
18669;SDS011;9464;44.918;9.670;2023-02-13T04:19:44;33.60;;;16.93;;
18669;SDS011;9464;44.918;9.670;2023-02-13T04:22:14;29.93;;;17.00;;
18669;SDS011;9464;44.918;9.670;2023-02-13T04:24:43;33.93;;;18.13;;
18669;SDS011;9464;44.918;9.670;2023-02-13T04:27:11;31.93;;;17.50;;
18669;SDS011;9464;44.918;9.670;2023-02-13T04:29:40;30.27;;;18.20;;
18669;SDS011;9464;44.918;9.670;2023-02-13T04:32:09;34.37;;;19.40;;
18669;SDS011;9464;44.918;9.670;2023-02-13T04:34:39;32.30;;;18.17;;
18669;SDS011;9464;44.918;9.670;2023-02-13T04:37:07;38.97;;;20.17;;
18669;SDS011;9464;44.918;9.670;2023-02-13T04:39:37;36.10;;;21.10;;
18669;SDS011;9464;44.918;9.670;2023-02-13T04:42:06;37.10;;;20.53;;
18669;SDS011;9464;44.918;9.670;2023-02-13T04:44:34;41.07;;;21.97;;
18669;SDS011;9464;44.918;9.670;2023-02-13T04:47:03;38.23;;;21.50;;
18669;SDS011;9464;44.918;9.670;2023-02-13T04:49:31;39.17;;;20.77;;
18669;SDS011;9464;44.918;9.670;2023-02-13T04:52:00;39.20;;;21.83;;
18669;SDS011;9464;44.918;9.670;2023-02-13T04:54:28;42.97;;;23.50;;
18669;SDS011;9464;44.918;9.670;2023-02-13T04:56:58;42.70;;;23.20;;
18669;SDS011;9464;44.918;9.670;2023-02-13T04:59:27;39.77;;;23.03;;
18669;SDS011;9464;44.918;9.670;2023-02-13T05:01:55;41.23;;;23.27;;
18669;SDS011;9464;44.918;9.670;2023-02-13T05:04:24;45.33;;;23.80;;
18669;SDS011;9464;44.918;9.670;2023-02-13T05:06:54;45.73;;;25.43;;
18669;SDS011;9464;44.918;9.670;2023-02-13T05:09:22;41.20;;;22.97;;
18669;SDS011;9464;44.918;9.670;2023-02-13T05:11:51;40.00;;;22.17;;
18669;SDS011;9464;44.918;9.670;2023-02-13T05:14:21;41.60;;;20.90;;
18669;SDS011;9464;44.918;9.670;2023-02-13T05:16:50;34.83;;;20.73;;
18669;SDS011;9464;44.918;9.670;2023-02-13T05:19:18;35.30;;;18.23;;
18669;SDS011;9464;44.918;9.670;2023-02-13T05:21:47;36.10;;;18.20;;
18669;SDS011;9464;44.918;9.670;2023-02-13T05:24:32;34.20;;;19.23;;
18669;SDS011;9464;44.918;9.670;2023-02-13T05:27:01;38.00;;;18.90;;
18669;SDS011;9464;44.918;9.670;2023-02-13T05:29:31;35.73;;;18.43;;
18669;SDS011;9464;44.918;9.670;2023-02-13T05:31:59;36.83;;;19.33;;
18669;SDS011;9464;44.918;9.670;2023-02-13T05:34:28;35.33;;;19.53;;
18669;SDS011;9464;44.918;9.670;2023-02-13T05:36:57;30.63;;;16.67;;
18669;SDS011;9464;44.918;9.670;2023-02-13T05:39:26;27.67;;;16.33;;
18669;SDS011;9464;44.918;9.670;2023-02-13T05:41:54;27.83;;;15.93;;
18669;SDS011;9464;44.918;9.670;2023-02-13T05:44:22;29.57;;;16.10;;
18669;SDS011;9464;44.918;9.670;2023-02-13T05:46:52;30.97;;;16.90;;
18669;SDS011;9464;44.918;9.670;2023-02-13T05:49:21;35.13;;;16.60;;
18669;SDS011;9464;44.918;9.670;2023-02-13T05:51:49;30.10;;;17.33;;
18669;SDS011;9464;44.918;9.670;2023-02-13T05:54:18;32.70;;;17.00;;
18669;SDS011;9464;44.918;9.670;2023-02-13T05:56:46;34.00;;;16.70;;
18669;SDS011;9464;44.918;9.670;2023-02-13T05:59:15;30.73;;;16.93;;
18669;SDS011;9464;44.918;9.670;2023-02-13T06:01:44;32.70;;;16.53;;
18669;SDS011;9464;44.918;9.670;2023-02-13T06:04:13;32.33;;;17.33;;
18669;SDS011;9464;44.918;9.670;2023-02-13T06:06:42;33.33;;;15.80;;
18669;SDS011;9464;44.918;9.670;2023-02-13T06:09:11;32.43;;;17.17;;
18669;SDS011;9464;44.918;9.670;2023-02-13T06:11:39;38.13;;;18.67;;
18669;SDS011;9464;44.918;9.670;2023-02-13T06:14:08;40.10;;;18.53;;
18669;SDS011;9464;44.918;9.670;2023-02-13T06:16:36;36.80;;;18.57;;
18669;SDS011;9464;44.918;9.670;2023-02-13T06:19:05;40.70;;;19.40;;
18669;SDS011;9464;44.918;9.670;2023-02-13T06:21:35;34.60;;;18.90;;
18669;SDS011;9464;44.918;9.670;2023-02-13T06:24:04;33.10;;;17.00;;
18669;SDS011;9464;44.918;9.670;2023-02-13T06:26:32;35.53;;;17.87;;
18669;SDS011;9464;44.918;9.670;2023-02-13T06:29:01;31.50;;;16.50;;
18669;SDS011;9464;44.918;9.670;2023-02-13T06:31:32;34.73;;;17.43;;
18669;SDS011;9464;44.918;9.670;2023-02-13T06:34:00;39.83;;;19.57;;
18669;SDS011;9464;44.918;9.670;2023-02-13T06:36:29;36.20;;;17.43;;
18669;SDS011;9464;44.918;9.670;2023-02-13T06:38:59;35.40;;;17.57;;
18669;SDS011;9464;44.918;9.670;2023-02-13T06:41:27;35.47;;;18.13;;
18669;SDS011;9464;44.918;9.670;2023-02-13T06:43:56;31.33;;;18.00;;
18669;SDS011;9464;44.918;9.670;2023-02-13T06:46:24;38.53;;;18.27;;
18669;SDS011;9464;44.918;9.670;2023-02-13T06:48:53;33.03;;;17.30;;
18669;SDS011;9464;44.918;9.670;2023-02-13T06:51:21;42.50;;;19.30;;
18669;SDS011;9464;44.918;9.670;2023-02-13T06:53:50;45.80;;;22.30;;
18669;SDS011;9464;44.918;9.670;2023-02-13T06:56:20;51.87;;;25.20;;
18669;SDS011;9464;44.918;9.670;2023-02-13T06:58:48;47.70;;;22.30;;
18669;SDS011;9464;44.918;9.670;2023-02-13T07:01:17;44.57;;;21.47;;
18669;SDS011;9464;44.918;9.670;2023-02-13T07:03:45;50.07;;;21.57;;
18669;SDS011;9464;44.918;9.670;2023-02-13T07:06:17;42.13;;;21.70;;
18669;SDS011;9464;44.918;9.670;2023-02-13T07:08:45;42.47;;;21.47;;
18669;SDS011;9464;44.918;9.670;2023-02-13T07:11:17;41.10;;;20.37;;
18669;SDS011;9464;44.918;9.670;2023-02-13T07:13:47;37.20;;;19.63;;
18669;SDS011;9464;44.918;9.670;2023-02-13T07:16:15;37.23;;;19.00;;
18669;SDS011;9464;44.918;9.670;2023-02-13T07:18:44;40.80;;;20.00;;
18669;SDS011;9464;44.918;9.670;2023-02-13T07:21:12;41.40;;;19.73;;
18669;SDS011;9464;44.918;9.670;2023-02-13T07:23:41;38.43;;;20.57;;
18669;SDS011;9464;44.918;9.670;2023-02-13T07:26:09;35.23;;;18.43;;
18669;SDS011;9464;44.918;9.670;2023-02-13T07:28:38;38.63;;;19.83;;
18669;SDS011;9464;44.918;9.670;2023-02-13T07:31:08;35.70;;;19.50;;
18669;SDS011;9464;44.918;9.670;2023-02-13T07:33:37;36.57;;;19.20;;
18669;SDS011;9464;44.918;9.670;2023-02-13T07:36:06;38.27;;;19.73;;
18669;SDS011;9464;44.918;9.670;2023-02-13T07:38:34;39.07;;;20.17;;
18669;SDS011;9464;44.918;9.670;2023-02-13T07:41:03;36.50;;;18.73;;
18669;SDS011;9464;44.918;9.670;2023-02-13T07:43:31;39.30;;;20.07;;
18669;SDS011;9464;44.918;9.670;2023-02-13T07:46:00;35.73;;;20.80;;
18669;SDS011;9464;44.918;9.670;2023-02-13T07:48:30;41.07;;;21.73;;
18669;SDS011;9464;44.918;9.670;2023-02-13T07:50:59;46.27;;;22.03;;
18669;SDS011;9464;44.918;9.670;2023-02-13T07:53:28;40.07;;;20.23;;
18669;SDS011;9464;44.918;9.670;2023-02-13T07:55:57;37.30;;;20.30;;
18669;SDS011;9464;44.918;9.670;2023-02-13T07:58:25;32.43;;;19.07;;
18669;SDS011;9464;44.918;9.670;2023-02-13T08:00:54;32.87;;;18.17;;
18669;SDS011;9464;44.918;9.670;2023-02-13T08:03:22;31.17;;;17.50;;
18669;SDS011;9464;44.918;9.670;2023-02-13T08:05:52;40.33;;;20.73;;
18669;SDS011;9464;44.918;9.670;2023-02-13T08:08:21;35.97;;;18.27;;
18669;SDS011;9464;44.918;9.670;2023-02-13T08:10:49;35.30;;;18.80;;
18669;SDS011;9464;44.918;9.670;2023-02-13T08:13:36;37.83;;;16.73;;
18669;SDS011;9464;44.918;9.670;2023-02-13T08:16:04;33.20;;;17.77;;
18669;SDS011;9464;44.918;9.670;2023-02-13T08:18:33;35.63;;;19.50;;
18669;SDS011;9464;44.918;9.670;2023-02-13T08:21:03;39.40;;;20.50;;
18669;SDS011;9464;44.918;9.670;2023-02-13T08:23:32;43.03;;;20.33;;
18669;SDS011;9464;44.918;9.670;2023-02-13T08:26:00;41.33;;;21.00;;
18669;SDS011;9464;44.918;9.670;2023-02-13T08:28:29;35.33;;;19.57;;
18669;SDS011;9464;44.918;9.670;2023-02-13T08:30:57;41.17;;;21.73;;
18669;SDS011;9464;44.918;9.670;2023-02-13T08:33:26;46.23;;;23.00;;
18669;SDS011;9464;44.918;9.670;2023-02-13T08:35:54;44.57;;;22.27;;
18669;SDS011;9464;44.918;9.670;2023-02-13T08:38:25;41.37;;;21.77;;
18669;SDS011;9464;44.918;9.670;2023-02-13T08:40:55;48.23;;;25.37;;
18669;SDS011;9464;44.918;9.670;2023-02-13T08:43:24;52.40;;;27.30;;
18669;SDS011;9464;44.918;9.670;2023-02-13T08:45:52;50.33;;;27.97;;
18669;SDS011;9464;44.918;9.670;2023-02-13T08:48:21;56.47;;;28.93;;
18669;SDS011;9464;44.918;9.670;2023-02-13T08:50:50;52.20;;;27.47;;
18669;SDS011;9464;44.918;9.670;2023-02-13T08:53:18;55.53;;;27.87;;
18669;SDS011;9464;44.918;9.670;2023-02-13T08:55:52;50.60;;;26.63;;
18669;SDS011;9464;44.918;9.670;2023-02-13T08:58:21;55.57;;;28.73;;
18669;SDS011;9464;44.918;9.670;2023-02-13T09:00:49;60.63;;;28.03;;
18669;SDS011;9464;44.918;9.670;2023-02-13T09:03:18;51.93;;;27.17;;
18669;SDS011;9464;44.918;9.670;2023-02-13T09:05:47;52.17;;;26.90;;
18669;SDS011;9464;44.918;9.670;2023-02-13T09:08:16;48.53;;;26.60;;
18669;SDS011;9464;44.918;9.670;2023-02-13T09:10:44;51.67;;;27.50;;
18669;SDS011;9464;44.918;9.670;2023-02-13T09:13:14;51.93;;;27.27;;
18669;SDS011;9464;44.918;9.670;2023-02-13T09:15:42;52.67;;;27.67;;
18669;SDS011;9464;44.918;9.670;2023-02-13T09:18:11;58.17;;;27.17;;
18669;SDS011;9464;44.918;9.670;2023-02-13T09:20:39;46.40;;;25.40;;
18669;SDS011;9464;44.918;9.670;2023-02-13T09:23:08;52.87;;;25.80;;
18669;SDS011;9464;44.918;9.670;2023-02-13T09:25:36;53.13;;;26.90;;
18669;SDS011;9464;44.918;9.670;2023-02-13T09:28:05;53.73;;;27.73;;
18669;SDS011;9464;44.918;9.670;2023-02-13T09:30:35;53.40;;;28.07;;
18669;SDS011;9464;44.918;9.670;2023-02-13T09:33:03;53.43;;;26.63;;
18669;SDS011;9464;44.918;9.670;2023-02-13T09:35:37;52.20;;;27.80;;
18669;SDS011;9464;44.918;9.670;2023-02-13T09:38:06;51.37;;;26.53;;
18669;SDS011;9464;44.918;9.670;2023-02-13T09:40:36;53.07;;;27.43;;
18669;SDS011;9464;44.918;9.670;2023-02-13T09:43:09;53.47;;;27.00;;
18669;SDS011;9464;44.918;9.670;2023-02-13T09:45:40;52.07;;;26.93;;
18669;SDS011;9464;44.918;9.670;2023-02-13T09:48:09;48.07;;;26.90;;
18669;SDS011;9464;44.918;9.670;2023-02-13T09:50:43;53.33;;;26.83;;
18669;SDS011;9464;44.918;9.670;2023-02-13T09:53:15;54.00;;;27.50;;
18669;SDS011;9464;44.918;9.670;2023-02-13T09:55:45;60.87;;;28.67;;
18669;SDS011;9464;44.918;9.670;2023-02-13T09:58:21;54.37;;;28.07;;
18669;SDS011;9464;44.918;9.670;2023-02-13T10:00:55;51.07;;;27.53;;
18669;SDS011;9464;44.918;9.670;2023-02-13T10:03:27;58.10;;;28.27;;
18669;SDS011;9464;44.918;9.670;2023-02-13T10:05:58;52.40;;;27.93;;
18669;SDS011;9464;44.918;9.670;2023-02-13T10:08:44;52.23;;;26.53;;
18669;SDS011;9464;44.918;9.670;2023-02-13T10:11:20;55.87;;;28.27;;
18669;SDS011;9464;44.918;9.670;2023-02-13T10:13:56;58.67;;;27.93;;
18669;SDS011;9464;44.918;9.670;2023-02-13T10:16:29;58.37;;;28.07;;
18669;SDS011;9464;44.918;9.670;2023-02-13T10:19:01;52.60;;;26.90;;
18669;SDS011;9464;44.918;9.670;2023-02-13T10:21:32;55.03;;;29.33;;
18669;SDS011;9464;44.918;9.670;2023-02-13T10:24:03;62.77;;;29.67;;
18669;SDS011;9464;44.918;9.670;2023-02-13T10:26:34;53.60;;;28.23;;
18669;SDS011;9464;44.918;9.670;2023-02-13T10:29:12;52.73;;;27.57;;
18669;SDS011;9464;44.918;9.670;2023-02-13T10:32:02;52.50;;;28.47;;
18669;SDS011;9464;44.918;9.670;2023-02-13T10:34:33;53.70;;;28.17;;
18669;SDS011;9464;44.918;9.670;2023-02-13T10:37:07;53.90;;;27.03;;
18669;SDS011;9464;44.918;9.670;2023-02-13T10:39:39;49.10;;;26.43;;
18669;SDS011;9464;44.918;9.670;2023-02-13T10:42:10;53.03;;;28.00;;
18669;SDS011;9464;44.918;9.670;2023-02-13T10:44:45;51.90;;;26.90;;
18669;SDS011;9464;44.918;9.670;2023-02-13T10:47:24;51.80;;;26.53;;
18669;SDS011;9464;44.918;9.670;2023-02-13T10:50:02;51.47;;;27.23;;
18669;SDS011;9464;44.918;9.670;2023-02-13T10:52:36;53.00;;;29.07;;
18669;SDS011;9464;44.918;9.670;2023-02-13T10:58:06;50.80;;;27.13;;
18669;SDS011;9464;44.918;9.670;2023-02-13T11:00:37;54.70;;;28.47;;
18669;SDS011;9464;44.918;9.670;2023-02-13T11:03:12;60.13;;;29.47;;
18669;SDS011;9464;44.918;9.670;2023-02-13T11:05:42;55.40;;;28.70;;
18669;SDS011;9464;44.918;9.670;2023-02-13T11:08:14;59.83;;;29.17;;
18669;SDS011;9464;44.918;9.670;2023-02-13T11:10:44;56.43;;;28.90;;
18669;SDS011;9464;44.918;9.670;2023-02-13T11:13:17;57.47;;;28.67;;
18669;SDS011;9464;44.918;9.670;2023-02-13T11:15:55;60.97;;;29.87;;
18669;SDS011;9464;44.918;9.670;2023-02-13T11:18:27;55.30;;;28.93;;
18669;SDS011;9464;44.918;9.670;2023-02-13T11:21:00;55.27;;;29.90;;
18669;SDS011;9464;44.918;9.670;2023-02-13T11:23:33;52.17;;;28.40;;
18669;SDS011;9464;44.918;9.670;2023-02-13T11:26:03;54.67;;;29.23;;
18669;SDS011;9464;44.918;9.670;2023-02-13T11:28:34;58.43;;;30.57;;
18669;SDS011;9464;44.918;9.670;2023-02-13T11:31:11;56.10;;;30.17;;
18669;SDS011;9464;44.918;9.670;2023-02-13T11:33:41;54.70;;;29.27;;
18669;SDS011;9464;44.918;9.670;2023-02-13T11:36:12;57.87;;;30.23;;
18669;SDS011;9464;44.918;9.670;2023-02-13T11:38:41;58.77;;;31.43;;
18669;SDS011;9464;44.918;9.670;2023-02-13T11:41:10;58.90;;;30.90;;
18669;SDS011;9464;44.918;9.670;2023-02-13T11:43:43;52.97;;;28.80;;
18669;SDS011;9464;44.918;9.670;2023-02-13T11:46:14;58.60;;;29.23;;
18669;SDS011;9464;44.918;9.670;2023-02-13T11:48:56;57.33;;;29.33;;
18669;SDS011;9464;44.918;9.670;2023-02-13T11:51:33;56.43;;;30.17;;
18669;SDS011;9464;44.918;9.670;2023-02-13T11:54:02;57.93;;;29.33;;
18669;SDS011;9464;44.918;9.670;2023-02-13T11:56:42;50.70;;;29.00;;
18669;SDS011;9464;44.918;9.670;2023-02-13T11:59:30;60.83;;;29.70;;
18669;SDS011;9464;44.918;9.670;2023-02-13T12:02:03;59.87;;;30.53;;
18669;SDS011;9464;44.918;9.670;2023-02-13T12:04:40;56.63;;;31.33;;
18669;SDS011;9464;44.918;9.670;2023-02-13T12:07:11;54.23;;;29.97;;
18669;SDS011;9464;44.918;9.670;2023-02-13T12:09:40;62.07;;;31.53;;
18669;SDS011;9464;44.918;9.670;2023-02-13T12:12:10;62.50;;;30.47;;
18669;SDS011;9464;44.918;9.670;2023-02-13T12:14:43;53.23;;;28.53;;
18669;SDS011;9464;44.918;9.670;2023-02-13T12:17:13;56.90;;;28.57;;
18669;SDS011;9464;44.918;9.670;2023-02-13T12:19:58;54.67;;;30.03;;
18669;SDS011;9464;44.918;9.670;2023-02-13T12:22:31;48.37;;;27.83;;
18669;SDS011;9464;44.918;9.670;2023-02-13T12:30:44;52.67;;;30.07;;
18669;SDS011;9464;44.918;9.670;2023-02-13T12:33:18;58.93;;;31.73;;
18669;SDS011;9464;44.918;9.670;2023-02-13T12:35:54;58.67;;;31.13;;
18669;SDS011;9464;44.918;9.670;2023-02-13T12:38:28;51.47;;;28.60;;
18669;SDS011;9464;44.918;9.670;2023-02-13T12:41:02;55.87;;;30.03;;
18669;SDS011;9464;44.918;9.670;2023-02-13T12:46:31;51.30;;;29.03;;
18669;SDS011;9464;44.918;9.670;2023-02-13T12:49:07;52.63;;;28.07;;
18669;SDS011;9464;44.918;9.670;2023-02-13T12:51:44;48.27;;;26.03;;
18669;SDS011;9464;44.918;9.670;2023-02-13T12:54:23;48.70;;;27.47;;
18669;SDS011;9464;44.918;9.670;2023-02-13T12:57:06;49.40;;;27.97;;
18669;SDS011;9464;44.918;9.670;2023-02-13T12:59:43;53.27;;;28.17;;
18669;SDS011;9464;44.918;9.670;2023-02-13T13:05:13;57.47;;;28.07;;
18669;SDS011;9464;44.918;9.670;2023-02-13T13:07:52;57.60;;;29.57;;
18669;SDS011;9464;44.918;9.670;2023-02-13T13:13:11;46.03;;;26.90;;
18669;SDS011;9464;44.918;9.670;2023-02-13T13:15:45;56.67;;;28.60;;
18669;SDS011;9464;44.918;9.670;2023-02-13T13:18:22;61.80;;;31.97;;
18669;SDS011;9464;44.918;9.670;2023-02-13T13:23:44;59.87;;;33.20;;
18669;SDS011;9464;44.918;9.670;2023-02-13T13:26:17;57.73;;;28.73;;
18669;SDS011;9464;44.918;9.670;2023-02-13T13:28:49;50.70;;;28.10;;
18669;SDS011;9464;44.918;9.670;2023-02-13T13:31:19;61.73;;;29.47;;
18669;SDS011;9464;44.918;9.670;2023-02-13T13:33:49;51.10;;;27.93;;
18669;SDS011;9464;44.918;9.670;2023-02-13T13:36:20;52.80;;;28.93;;
18669;SDS011;9464;44.918;9.670;2023-02-13T13:38:55;66.20;;;32.23;;
18669;SDS011;9464;44.918;9.670;2023-02-13T13:41:29;89.63;;;43.67;;
18669;SDS011;9464;44.918;9.670;2023-02-13T13:44:02;55.80;;;31.00;;
18669;SDS011;9464;44.918;9.670;2023-02-13T13:46:37;53.90;;;28.00;;
18669;SDS011;9464;44.918;9.670;2023-02-13T13:49:13;47.97;;;27.10;;
18669;SDS011;9464;44.918;9.670;2023-02-13T13:51:45;49.97;;;27.43;;
18669;SDS011;9464;44.918;9.670;2023-02-13T13:54:19;56.93;;;30.63;;
18669;SDS011;9464;44.918;9.670;2023-02-13T13:57:02;51.13;;;26.30;;
18669;SDS011;9464;44.918;9.670;2023-02-13T14:02:26;65.43;;;33.77;;
18669;SDS011;9464;44.918;9.670;2023-02-13T14:04:59;54.03;;;28.77;;
18669;SDS011;9464;44.918;9.670;2023-02-13T14:07:32;52.60;;;29.17;;
18669;SDS011;9464;44.918;9.670;2023-02-13T14:10:02;62.70;;;30.00;;
18669;SDS011;9464;44.918;9.670;2023-02-13T14:12:34;59.33;;;31.83;;
18669;SDS011;9464;44.918;9.670;2023-02-13T14:15:03;48.87;;;27.77;;
18669;SDS011;9464;44.918;9.670;2023-02-13T14:17:49;60.60;;;31.60;;
18669;SDS011;9464;44.918;9.670;2023-02-13T14:20:19;57.53;;;30.27;;
18669;SDS011;9464;44.918;9.670;2023-02-13T14:22:49;54.80;;;28.77;;
18669;SDS011;9464;44.918;9.670;2023-02-13T14:25:23;50.80;;;27.67;;
18669;SDS011;9464;44.918;9.670;2023-02-13T14:27:55;56.87;;;28.63;;
18669;SDS011;9464;44.918;9.670;2023-02-13T14:30:27;50.53;;;29.03;;
18669;SDS011;9464;44.918;9.670;2023-02-13T14:32:56;59.50;;;31.50;;
18669;SDS011;9464;44.918;9.670;2023-02-13T14:35:28;52.00;;;30.13;;
18669;SDS011;9464;44.918;9.670;2023-02-13T14:37:57;49.63;;;29.90;;
18669;SDS011;9464;44.918;9.670;2023-02-13T14:40:29;48.93;;;27.07;;
18669;SDS011;9464;44.918;9.670;2023-02-13T14:42:59;50.13;;;27.17;;
18669;SDS011;9464;44.918;9.670;2023-02-13T14:45:29;54.77;;;28.83;;
18669;SDS011;9464;44.918;9.670;2023-02-13T14:48:02;47.90;;;26.73;;
18669;SDS011;9464;44.918;9.670;2023-02-13T14:50:34;50.23;;;26.30;;
18669;SDS011;9464;44.918;9.670;2023-02-13T14:53:06;252.77;;;80.93;;
18669;SDS011;9464;44.918;9.670;2023-02-13T14:55:39;90.10;;;41.43;;
18669;SDS011;9464;44.918;9.670;2023-02-13T14:58:10;56.20;;;29.53;;
18669;SDS011;9464;44.918;9.670;2023-02-13T15:00:42;63.37;;;32.40;;
18669;SDS011;9464;44.918;9.670;2023-02-13T15:03:14;51.90;;;28.50;;
18669;SDS011;9464;44.918;9.670;2023-02-13T15:05:48;55.40;;;28.33;;
18669;SDS011;9464;44.918;9.670;2023-02-13T15:08:18;48.20;;;27.57;;
18669;SDS011;9464;44.918;9.670;2023-02-13T15:10:49;56.60;;;28.10;;
18669;SDS011;9464;44.918;9.670;2023-02-13T15:13:19;48.03;;;26.77;;
18669;SDS011;9464;44.918;9.670;2023-02-13T15:15:50;60.67;;;28.63;;
18669;SDS011;9464;44.918;9.670;2023-02-13T15:18:19;55.13;;;28.10;;
18669;SDS011;9464;44.918;9.670;2023-02-13T15:20:49;58.17;;;31.00;;
18669;SDS011;9464;44.918;9.670;2023-02-13T15:23:21;67.80;;;35.77;;
18669;SDS011;9464;44.918;9.670;2023-02-13T15:25:59;60.27;;;30.47;;
18669;SDS011;9464;44.918;9.670;2023-02-13T15:28:28;55.13;;;30.40;;